sensor_id;sensor_type;location;lat;lon;timestamp;temperature;humidity
19437;DHT22;9854;50.968;4.168;2023-03-20T00:00:49;8.20;99.90
19437;DHT22;9854;50.968;4.168;2023-03-20T00:03:15;8.30;99.90
19437;DHT22;9854;50.968;4.168;2023-03-20T00:05:41;8.30;99.90
19437;DHT22;9854;50.968;4.168;2023-03-20T00:08:07;8.30;99.90
19437;DHT22;9854;50.968;4.168;2023-03-20T00:10:41;8.20;99.90
19437;DHT22;9854;50.968;4.168;2023-03-20T00:13:13;8.20;99.90
19437;DHT22;9854;50.968;4.168;2023-03-20T00:15:42;8.20;99.90
19437;DHT22;9854;50.968;4.168;2023-03-20T00:18:20;8.10;99.90
19437;DHT22;9854;50.968;4.168;2023-03-20T00:20:48;8.10;99.90
19437;DHT22;9854;50.968;4.168;2023-03-20T00:23:15;8.00;99.90
19437;DHT22;9854;50.968;4.168;2023-03-20T00:25:43;8.10;99.90
19437;DHT22;9854;50.968;4.168;2023-03-20T00:30:57;7.90;99.90
19437;DHT22;9854;50.968;4.168;2023-03-20T00:33:23;7.80;99.90
19437;DHT22;9854;50.968;4.168;2023-03-20T00:35:48;7.80;99.90
19437;DHT22;9854;50.968;4.168;2023-03-20T00:38:14;7.70;99.90
19437;DHT22;9854;50.968;4.168;2023-03-20T00:40:40;7.50;99.90
19437;DHT22;9854;50.968;4.168;2023-03-20T00:43:06;7.50;99.90
19437;DHT22;9854;50.968;4.168;2023-03-20T00:45:33;7.60;99.90
19437;DHT22;9854;50.968;4.168;2023-03-20T00:48:00;7.80;99.90
19437;DHT22;9854;50.968;4.168;2023-03-20T00:50:29;7.80;99.90
19437;DHT22;9854;50.968;4.168;2023-03-20T00:52:56;7.70;99.90
19437;DHT22;9854;50.968;4.168;2023-03-20T00:55:27;7.70;99.90
19437;DHT22;9854;50.968;4.168;2023-03-20T00:57:57;7.80;99.90
19437;DHT22;9854;50.968;4.168;2023-03-20T01:03:01;7.90;99.90
19437;DHT22;9854;50.968;4.168;2023-03-20T01:05:29;8.00;99.90
19437;DHT22;9854;50.968;4.168;2023-03-20T01:07:55;7.80;99.90
19437;DHT22;9854;50.968;4.168;2023-03-20T01:10:22;7.50;99.90
19437;DHT22;9854;50.968;4.168;2023-03-20T01:12:50;7.40;99.90
19437;DHT22;9854;50.968;4.168;2023-03-20T01:15:17;7.50;99.90
19437;DHT22;9854;50.968;4.168;2023-03-20T01:17:44;7.40;99.90
19437;DHT22;9854;50.968;4.168;2023-03-20T01:20:20;7.50;99.90
19437;DHT22;9854;50.968;4.168;2023-03-20T01:22:45;7.70;99.90
19437;DHT22;9854;50.968;4.168;2023-03-20T01:25:12;7.60;99.90
19437;DHT22;9854;50.968;4.168;2023-03-20T01:27:37;7.50;99.90
19437;DHT22;9854;50.968;4.168;2023-03-20T01:33:09;7.40;99.90
19437;DHT22;9854;50.968;4.168;2023-03-20T01:35:36;7.50;99.90
19437;DHT22;9854;50.968;4.168;2023-03-20T01:38:02;7.40;99.90
19437;DHT22;9854;50.968;4.168;2023-03-20T01:40:58;7.30;99.90
19437;DHT22;9854;50.968;4.168;2023-03-20T01:43:27;7.60;99.90
19437;DHT22;9854;50.968;4.168;2023-03-20T01:51:22;7.30;99.90
19437;DHT22;9854;50.968;4.168;2023-03-20T01:56:42;7.30;99.90
19437;DHT22;9854;50.968;4.168;2023-03-20T01:59:13;7.30;99.90
19437;DHT22;9854;50.968;4.168;2023-03-20T02:01:41;7.30;99.90
19437;DHT22;9854;50.968;4.168;2023-03-20T02:04:09;7.50;99.90
19437;DHT22;9854;50.968;4.168;2023-03-20T02:06:36;7.60;99.90
19437;DHT22;9854;50.968;4.168;2023-03-20T02:09:02;7.70;99.90
19437;DHT22;9854;50.968;4.168;2023-03-20T02:11:28;7.70;99.90
19437;DHT22;9854;50.968;4.168;2023-03-20T02:13:57;7.60;99.90
19437;DHT22;9854;50.968;4.168;2023-03-20T02:16:23;7.60;99.90
19437;DHT22;9854;50.968;4.168;2023-03-20T02:18:51;7.50;99.90
19437;DHT22;9854;50.968;4.168;2023-03-20T02:43:57;7.20;99.90
19437;DHT22;9854;50.968;4.168;2023-03-20T02:49:09;7.30;99.90
19437;DHT22;9854;50.968;4.168;2023-03-20T02:59:37;7.50;99.90
19437;DHT22;9854;50.968;4.168;2023-03-20T03:02:11;7.40;99.90
19437;DHT22;9854;50.968;4.168;2023-03-20T03:04:59;7.50;99.90
19437;DHT22;9854;50.968;4.168;2023-03-20T03:07:29;7.40;99.90
19437;DHT22;9854;50.968;4.168;2023-03-20T03:10:10;7.40;99.90
19437;DHT22;9854;50.968;4.168;2023-03-20T03:12:41;7.20;99.90
19437;DHT22;9854;50.968;4.168;2023-03-20T03:15:24;7.20;99.90
19437;DHT22;9854;50.968;4.168;2023-03-20T03:17:51;7.20;99.90
19437;DHT22;9854;50.968;4.168;2023-03-20T03:20:32;7.30;99.90
19437;DHT22;9854;50.968;4.168;2023-03-20T03:22:59;7.20;99.90
19437;DHT22;9854;50.968;4.168;2023-03-20T03:25:28;7.20;99.90
19437;DHT22;9854;50.968;4.168;2023-03-20T03:28:07;7.20;99.90
19437;DHT22;9854;50.968;4.168;2023-03-20T03:30:38;7.10;99.90
19437;DHT22;9854;50.968;4.168;2023-03-20T03:33:24;7.10;99.90
19437;DHT22;9854;50.968;4.168;2023-03-20T03:38:59;7.20;99.90
19437;DHT22;9854;50.968;4.168;2023-03-20T03:41:37;7.20;99.90
19437;DHT22;9854;50.968;4.168;2023-03-20T03:46:58;7.20;99.90
19437;DHT22;9854;50.968;4.168;2023-03-20T03:49:31;7.30;99.90
19437;DHT22;9854;50.968;4.168;2023-03-20T03:52:02;7.20;99.90
19437;DHT22;9854;50.968;4.168;2023-03-20T03:54:35;7.20;99.90
19437;DHT22;9854;50.968;4.168;2023-03-20T03:57:03;7.20;99.90
19437;DHT22;9854;50.968;4.168;2023-03-20T03:59:36;7.30;99.90
19437;DHT22;9854;50.968;4.168;2023-03-20T04:02:04;7.30;99.90
19437;DHT22;9854;50.968;4.168;2023-03-20T04:04:31;7.20;99.90
19437;DHT22;9854;50.968;4.168;2023-03-20T04:06:57;7.10;99.90
19437;DHT22;9854;50.968;4.168;2023-03-20T04:09:22;7.10;99.90
19437;DHT22;9854;50.968;4.168;2023-03-20T04:11:50;7.10;99.90
19437;DHT22;9854;50.968;4.168;2023-03-20T04:14:17;7.10;99.90
19437;DHT22;9854;50.968;4.168;2023-03-20T04:16:43;7.10;99.90
19437;DHT22;9854;50.968;4.168;2023-03-20T04:19:08;7.00;99.90
19437;DHT22;9854;50.968;4.168;2023-03-20T04:21:34;7.00;99.90
19437;DHT22;9854;50.968;4.168;2023-03-20T04:24:00;6.90;99.90
19437;DHT22;9854;50.968;4.168;2023-03-20T04:26:26;6.90;99.90
19437;DHT22;9854;50.968;4.168;2023-03-20T04:28:52;7.00;99.90
19437;DHT22;9854;50.968;4.168;2023-03-20T04:31:18;7.10;99.90
19437;DHT22;9854;50.968;4.168;2023-03-20T04:33:44;7.20;99.90
19437;DHT22;9854;50.968;4.168;2023-03-20T04:36:10;7.30;99.90
19437;DHT22;9854;50.968;4.168;2023-03-20T04:38:36;7.40;99.90
19437;DHT22;9854;50.968;4.168;2023-03-20T04:41:02;7.40;99.90
19437;DHT22;9854;50.968;4.168;2023-03-20T04:43:28;7.50;99.90
19437;DHT22;9854;50.968;4.168;2023-03-20T04:45:54;7.50;99.90
19437;DHT22;9854;50.968;4.168;2023-03-20T04:48:19;7.30;99.90
19437;DHT22;9854;50.968;4.168;2023-03-20T04:50:45;7.40;99.90
19437;DHT22;9854;50.968;4.168;2023-03-20T04:53:13;7.40;99.90
19437;DHT22;9854;50.968;4.168;2023-03-20T04:55:40;7.40;99.90
19437;DHT22;9854;50.968;4.168;2023-03-20T04:58:05;7.30;99.90
19437;DHT22;9854;50.968;4.168;2023-03-20T05:00:31;7.40;99.90
19437;DHT22;9854;50.968;4.168;2023-03-20T05:02:57;7.30;99.90
19437;DHT22;9854;50.968;4.168;2023-03-20T05:05:23;7.20;99.90
19437;DHT22;9854;50.968;4.168;2023-03-20T05:07:50;7.20;99.90
19437;DHT22;9854;50.968;4.168;2023-03-20T05:10:16;7.20;99.90
19437;DHT22;9854;50.968;4.168;2023-03-20T05:12:42;7.10;99.90
19437;DHT22;9854;50.968;4.168;2023-03-20T05:15:08;7.00;99.90
19437;DHT22;9854;50.968;4.168;2023-03-20T05:17:34;7.10;99.90
19437;DHT22;9854;50.968;4.168;2023-03-20T05:20:00;7.10;99.90
19437;DHT22;9854;50.968;4.168;2023-03-20T05:22:25;7.20;99.90
19437;DHT22;9854;50.968;4.168;2023-03-20T05:24:51;7.10;99.90
19437;DHT22;9854;50.968;4.168;2023-03-20T05:27:17;7.10;99.90
19437;DHT22;9854;50.968;4.168;2023-03-20T05:29:43;7.10;99.90
19437;DHT22;9854;50.968;4.168;2023-03-20T05:32:09;7.20;99.90
19437;DHT22;9854;50.968;4.168;2023-03-20T05:34:34;7.20;99.90
19437;DHT22;9854;50.968;4.168;2023-03-20T05:37:00;7.10;99.90
19437;DHT22;9854;50.968;4.168;2023-03-20T05:39:26;7.10;99.90
19437;DHT22;9854;50.968;4.168;2023-03-20T05:41:52;7.10;99.90
19437;DHT22;9854;50.968;4.168;2023-03-20T05:44:17;7.20;99.90
19437;DHT22;9854;50.968;4.168;2023-03-20T05:46:43;7.20;99.90
19437;DHT22;9854;50.968;4.168;2023-03-20T05:49:09;7.30;99.90
19437;DHT22;9854;50.968;4.168;2023-03-20T05:51:34;7.10;99.90
19437;DHT22;9854;50.968;4.168;2023-03-20T05:54:00;7.00;99.90
19437;DHT22;9854;50.968;4.168;2023-03-20T05:56:26;7.00;99.90
19437;DHT22;9854;50.968;4.168;2023-03-20T05:58:51;6.90;99.90
19437;DHT22;9854;50.968;4.168;2023-03-20T06:01:17;6.90;99.90
19437;DHT22;9854;50.968;4.168;2023-03-20T06:03:46;6.90;99.90
19437;DHT22;9854;50.968;4.168;2023-03-20T06:06:13;7.00;99.90
19437;DHT22;9854;50.968;4.168;2023-03-20T06:08:39;6.90;99.90
19437;DHT22;9854;50.968;4.168;2023-03-20T06:11:05;6.90;99.90
19437;DHT22;9854;50.968;4.168;2023-03-20T06:13:31;7.00;99.90
19437;DHT22;9854;50.968;4.168;2023-03-20T06:15:56;6.90;99.90
19437;DHT22;9854;50.968;4.168;2023-03-20T06:18:22;6.90;99.90
19437;DHT22;9854;50.968;4.168;2023-03-20T06:20:54;6.80;99.90
19437;DHT22;9854;50.968;4.168;2023-03-20T06:23:21;6.90;99.90
19437;DHT22;9854;50.968;4.168;2023-03-20T06:25:46;7.00;99.90
19437;DHT22;9854;50.968;4.168;2023-03-20T06:28:12;6.90;99.90
19437;DHT22;9854;50.968;4.168;2023-03-20T06:30:38;6.90;99.90
19437;DHT22;9854;50.968;4.168;2023-03-20T06:33:06;7.00;99.90
19437;DHT22;9854;50.968;4.168;2023-03-20T06:35:32;7.10;99.90
19437;DHT22;9854;50.968;4.168;2023-03-20T06:37:58;7.10;99.90
19437;DHT22;9854;50.968;4.168;2023-03-20T06:40:24;7.10;99.90
19437;DHT22;9854;50.968;4.168;2023-03-20T06:42:52;7.10;99.90
19437;DHT22;9854;50.968;4.168;2023-03-20T06:45:19;7.10;99.90
19437;DHT22;9854;50.968;4.168;2023-03-20T06:47:45;7.20;99.90
19437;DHT22;9854;50.968;4.168;2023-03-20T06:50:12;7.20;99.90
19437;DHT22;9854;50.968;4.168;2023-03-20T06:52:38;7.20;99.90
19437;DHT22;9854;50.968;4.168;2023-03-20T06:55:05;7.20;99.90
19437;DHT22;9854;50.968;4.168;2023-03-20T06:57:31;7.20;99.90
19437;DHT22;9854;50.968;4.168;2023-03-20T06:59:56;7.20;99.90
19437;DHT22;9854;50.968;4.168;2023-03-20T07:02:22;7.30;99.90
19437;DHT22;9854;50.968;4.168;2023-03-20T07:04:48;7.30;99.90
19437;DHT22;9854;50.968;4.168;2023-03-20T07:07:14;7.30;99.90
19437;DHT22;9854;50.968;4.168;2023-03-20T07:09:39;7.40;99.90
19437;DHT22;9854;50.968;4.168;2023-03-20T07:12:10;7.70;99.90
19437;DHT22;9854;50.968;4.168;2023-03-20T07:14:39;7.70;99.90
19437;DHT22;9854;50.968;4.168;2023-03-20T07:17:06;7.80;99.90
19437;DHT22;9854;50.968;4.168;2023-03-20T07:19:32;7.80;99.90
19437;DHT22;9854;50.968;4.168;2023-03-20T07:21:59;7.80;99.90
19437;DHT22;9854;50.968;4.168;2023-03-20T07:24:26;7.90;99.90
19437;DHT22;9854;50.968;4.168;2023-03-20T07:26:52;7.80;99.90
19437;DHT22;9854;50.968;4.168;2023-03-20T07:29:18;7.80;99.90
19437;DHT22;9854;50.968;4.168;2023-03-20T07:31:43;7.80;99.90
19437;DHT22;9854;50.968;4.168;2023-03-20T07:34:10;7.80;99.90
19437;DHT22;9854;50.968;4.168;2023-03-20T07:36:36;7.90;99.90
19437;DHT22;9854;50.968;4.168;2023-03-20T07:39:02;7.90;99.90
19437;DHT22;9854;50.968;4.168;2023-03-20T07:41:28;8.00;99.90
19437;DHT22;9854;50.968;4.168;2023-03-20T07:43:54;8.00;99.90
19437;DHT22;9854;50.968;4.168;2023-03-20T07:46:19;8.10;99.90
19437;DHT22;9854;50.968;4.168;2023-03-20T07:48:45;8.10;99.90
19437;DHT22;9854;50.968;4.168;2023-03-20T07:51:11;8.20;99.90
19437;DHT22;9854;50.968;4.168;2023-03-20T07:53:36;8.50;99.90
19437;DHT22;9854;50.968;4.168;2023-03-20T07:56:02;8.50;99.90
19437;DHT22;9854;50.968;4.168;2023-03-20T07:58:28;8.30;99.90
19437;DHT22;9854;50.968;4.168;2023-03-20T08:00:56;8.30;99.90
19437;DHT22;9854;50.968;4.168;2023-03-20T08:03:22;8.10;99.90
19437;DHT22;9854;50.968;4.168;2023-03-20T08:05:47;8.10;99.90
19437;DHT22;9854;50.968;4.168;2023-03-20T08:08:13;8.20;99.90
19437;DHT22;9854;50.968;4.168;2023-03-20T08:10:39;8.20;99.90
19437;DHT22;9854;50.968;4.168;2023-03-20T08:13:04;8.10;99.90
19437;DHT22;9854;50.968;4.168;2023-03-20T08:15:30;8.00;99.90
19437;DHT22;9854;50.968;4.168;2023-03-20T08:17:55;8.20;99.90
19437;DHT22;9854;50.968;4.168;2023-03-20T08:20:23;8.30;99.90
19437;DHT22;9854;50.968;4.168;2023-03-20T08:22:49;8.30;99.90
19437;DHT22;9854;50.968;4.168;2023-03-20T08:25:15;8.50;99.90
19437;DHT22;9854;50.968;4.168;2023-03-20T08:27:41;8.50;99.90
19437;DHT22;9854;50.968;4.168;2023-03-20T08:30:07;8.40;99.90
19437;DHT22;9854;50.968;4.168;2023-03-20T08:32:34;8.30;99.90
19437;DHT22;9854;50.968;4.168;2023-03-20T08:35:00;8.50;99.90
19437;DHT22;9854;50.968;4.168;2023-03-20T08:37:26;8.60;99.90
19437;DHT22;9854;50.968;4.168;2023-03-20T08:39:52;8.50;99.90
19437;DHT22;9854;50.968;4.168;2023-03-20T08:42:17;8.40;99.90
19437;DHT22;9854;50.968;4.168;2023-03-20T08:44:43;8.30;99.90
19437;DHT22;9854;50.968;4.168;2023-03-20T08:47:09;8.30;99.90
19437;DHT22;9854;50.968;4.168;2023-03-20T08:49:36;8.60;99.90
19437;DHT22;9854;50.968;4.168;2023-03-20T08:52:02;8.50;99.90
19437;DHT22;9854;50.968;4.168;2023-03-20T08:54:28;8.70;99.90
19437;DHT22;9854;50.968;4.168;2023-03-20T08:56:54;8.50;99.90
19437;DHT22;9854;50.968;4.168;2023-03-20T08:59:20;8.70;99.90
19437;DHT22;9854;50.968;4.168;2023-03-20T09:01:46;8.90;99.90
19437;DHT22;9854;50.968;4.168;2023-03-20T09:04:12;9.10;99.90
19437;DHT22;9854;50.968;4.168;2023-03-20T09:06:39;9.30;99.90
19437;DHT22;9854;50.968;4.168;2023-03-20T09:09:05;9.20;99.90
19437;DHT22;9854;50.968;4.168;2023-03-20T09:11:31;9.40;99.90
19437;DHT22;9854;50.968;4.168;2023-03-20T09:13:58;9.60;99.90
19437;DHT22;9854;50.968;4.168;2023-03-20T09:16:24;9.70;99.90
19437;DHT22;9854;50.968;4.168;2023-03-20T09:18:50;9.70;99.90
19437;DHT22;9854;50.968;4.168;2023-03-20T09:21:15;9.80;99.90
19437;DHT22;9854;50.968;4.168;2023-03-20T09:23:41;9.80;99.90
19437;DHT22;9854;50.968;4.168;2023-03-20T09:26:07;9.60;99.90
19437;DHT22;9854;50.968;4.168;2023-03-20T09:28:32;9.60;99.90
19437;DHT22;9854;50.968;4.168;2023-03-20T09:30:59;9.90;99.90
19437;DHT22;9854;50.968;4.168;2023-03-20T09:33:25;9.90;99.90
19437;DHT22;9854;50.968;4.168;2023-03-20T09:35:51;10.00;99.90
19437;DHT22;9854;50.968;4.168;2023-03-20T09:38:17;10.10;99.90
19437;DHT22;9854;50.968;4.168;2023-03-20T09:40:56;10.40;99.90
19437;DHT22;9854;50.968;4.168;2023-03-20T09:54:18;10.30;99.90
19437;DHT22;9854;50.968;4.168;2023-03-20T09:56:46;10.40;99.90
19437;DHT22;9854;50.968;4.168;2023-03-20T09:59:14;10.50;99.90
19437;DHT22;9854;50.968;4.168;2023-03-20T10:01:49;10.60;99.90
19437;DHT22;9854;50.968;4.168;2023-03-20T10:04:16;10.60;99.90
19437;DHT22;9854;50.968;4.168;2023-03-20T10:06:42;10.80;99.90
19437;DHT22;9854;50.968;4.168;2023-03-20T10:09:24;11.00;99.90
19437;DHT22;9854;50.968;4.168;2023-03-20T10:14:37;10.90;99.90
19437;DHT22;9854;50.968;4.168;2023-03-20T10:17:25;10.80;99.90
19437;DHT22;9854;50.968;4.168;2023-03-20T10:23:06;10.60;99.90
19437;DHT22;9854;50.968;4.168;2023-03-20T10:25:57;10.60;99.90
19437;DHT22;9854;50.968;4.168;2023-03-20T10:37:09;10.80;99.90
19437;DHT22;9854;50.968;4.168;2023-03-20T10:39:52;10.60;99.90
19437;DHT22;9854;50.968;4.168;2023-03-20T10:42:26;10.70;99.90
19437;DHT22;9854;50.968;4.168;2023-03-20T10:47:42;10.60;99.90
19437;DHT22;9854;50.968;4.168;2023-03-20T10:50:18;10.90;99.90
19437;DHT22;9854;50.968;4.168;2023-03-20T10:52:48;11.00;99.90
19437;DHT22;9854;50.968;4.168;2023-03-20T10:55:18;11.10;99.90
19437;DHT22;9854;50.968;4.168;2023-03-20T10:57:58;11.20;99.90
19437;DHT22;9854;50.968;4.168;2023-03-20T11:00:26;11.10;99.90
19437;DHT22;9854;50.968;4.168;2023-03-20T11:02:53;11.00;99.90
19437;DHT22;9854;50.968;4.168;2023-03-20T11:05:30;10.90;99.90
19437;DHT22;9854;50.968;4.168;2023-03-20T11:08:10;11.20;99.90
19437;DHT22;9854;50.968;4.168;2023-03-20T11:10:37;11.30;99.90
19437;DHT22;9854;50.968;4.168;2023-03-20T11:13:22;11.20;99.90
19437;DHT22;9854;50.968;4.168;2023-03-20T11:15:51;11.20;99.90
19437;DHT22;9854;50.968;4.168;2023-03-20T11:18:17;11.50;99.90
19437;DHT22;9854;50.968;4.168;2023-03-20T11:20:53;11.80;99.90
19437;DHT22;9854;50.968;4.168;2023-03-20T11:23:33;11.90;99.90
19437;DHT22;9854;50.968;4.168;2023-03-20T11:26:02;12.30;99.90
19437;DHT22;9854;50.968;4.168;2023-03-20T11:28:35;12.50;99.90
19437;DHT22;9854;50.968;4.168;2023-03-20T11:31:14;12.50;99.90
19437;DHT22;9854;50.968;4.168;2023-03-20T11:33:50;12.10;99.90
19437;DHT22;9854;50.968;4.168;2023-03-20T11:36:23;12.20;99.90
19437;DHT22;9854;50.968;4.168;2023-03-20T11:38:50;12.10;99.90
19437;DHT22;9854;50.968;4.168;2023-03-20T11:41:27;12.20;99.90
19437;DHT22;9854;50.968;4.168;2023-03-20T11:43:53;12.30;99.90
19437;DHT22;9854;50.968;4.168;2023-03-20T11:46:21;12.30;99.90
19437;DHT22;9854;50.968;4.168;2023-03-20T11:49:01;12.30;99.90
19437;DHT22;9854;50.968;4.168;2023-03-20T11:51:28;12.60;99.90
19437;DHT22;9854;50.968;4.168;2023-03-20T11:54:01;12.80;99.90
19437;DHT22;9854;50.968;4.168;2023-03-20T11:56:32;13.10;99.90
19437;DHT22;9854;50.968;4.168;2023-03-20T11:59:15;13.50;99.90
19437;DHT22;9854;50.968;4.168;2023-03-20T12:01:49;13.50;99.90
19437;DHT22;9854;50.968;4.168;2023-03-20T12:04:18;13.30;99.90
19437;DHT22;9854;50.968;4.168;2023-03-20T12:06:52;13.40;99.90
19437;DHT22;9854;50.968;4.168;2023-03-20T12:18:00;13.10;99.90
19437;DHT22;9854;50.968;4.168;2023-03-20T12:26:05;12.80;99.90
19437;DHT22;9854;50.968;4.168;2023-03-20T12:36:35;12.90;99.90
19437;DHT22;9854;50.968;4.168;2023-03-20T12:39:05;13.00;99.90
19437;DHT22;9854;50.968;4.168;2023-03-20T12:50:09;12.40;99.90
19437;DHT22;9854;50.968;4.168;2023-03-20T12:55:44;12.30;99.90
19437;DHT22;9854;50.968;4.168;2023-03-20T12:58:17;12.10;99.90
19437;DHT22;9854;50.968;4.168;2023-03-20T13:09:22;12.40;99.90
19437;DHT22;9854;50.968;4.168;2023-03-20T13:15:14;12.50;99.90
19437;DHT22;9854;50.968;4.168;2023-03-20T13:20:45;12.70;99.90
19437;DHT22;9854;50.968;4.168;2023-03-20T13:29:04;13.00;99.90
19437;DHT22;9854;50.968;4.168;2023-03-20T13:32:08;12.90;99.90
19437;DHT22;9854;50.968;4.168;2023-03-20T13:37:29;12.30;99.90
19437;DHT22;9854;50.968;4.168;2023-03-20T13:43:07;12.30;99.90
19437;DHT22;9854;50.968;4.168;2023-03-20T13:45:39;12.20;99.90
19437;DHT22;9854;50.968;4.168;2023-03-20T13:48:28;12.20;99.90
19437;DHT22;9854;50.968;4.168;2023-03-20T13:54:06;12.10;99.90
19437;DHT22;9854;50.968;4.168;2023-03-20T13:56:55;12.20;99.90
19437;DHT22;9854;50.968;4.168;2023-03-20T14:04:46;12.60;99.90
19437;DHT22;9854;50.968;4.168;2023-03-20T14:09:56;12.70;99.90
19437;DHT22;9854;50.968;4.168;2023-03-20T14:12:25;12.40;99.90
19437;DHT22;9854;50.968;4.168;2023-03-20T14:14:56;12.30;99.90
19437;DHT22;9854;50.968;4.168;2023-03-20T14:17:27;12.10;99.90
19437;DHT22;9854;50.968;4.168;2023-03-20T14:19:54;12.20;99.90
19437;DHT22;9854;50.968;4.168;2023-03-20T14:22:28;12.30;99.90
19437;DHT22;9854;50.968;4.168;2023-03-20T14:25:12;12.40;99.90
19437;DHT22;9854;50.968;4.168;2023-03-20T14:27:59;12.50;99.90
19437;DHT22;9854;50.968;4.168;2023-03-20T14:33:06;12.70;99.90
19437;DHT22;9854;50.968;4.168;2023-03-20T14:35:37;12.90;99.90
19437;DHT22;9854;50.968;4.168;2023-03-20T14:38:19;12.70;99.90
19437;DHT22;9854;50.968;4.168;2023-03-20T14:54:39;12.50;99.90
19437;DHT22;9854;50.968;4.168;2023-03-20T14:57:16;12.60;99.90
19437;DHT22;9854;50.968;4.168;2023-03-20T14:59:48;12.70;99.90
19437;DHT22;9854;50.968;4.168;2023-03-20T15:02:28;12.90;99.90
19437;DHT22;9854;50.968;4.168;2023-03-20T15:04:54;12.70;99.90
19437;DHT22;9854;50.968;4.168;2023-03-20T15:07:30;12.60;99.90
19437;DHT22;9854;50.968;4.168;2023-03-20T15:10:00;12.80;99.90
19437;DHT22;9854;50.968;4.168;2023-03-20T15:12:32;13.00;99.90
19437;DHT22;9854;50.968;4.168;2023-03-20T15:15:05;12.90;99.90
19437;DHT22;9854;50.968;4.168;2023-03-20T15:17:44;12.90;99.90
19437;DHT22;9854;50.968;4.168;2023-03-20T15:25:22;13.10;99.90
19437;DHT22;9854;50.968;4.168;2023-03-20T15:27:48;12.90;99.90
19437;DHT22;9854;50.968;4.168;2023-03-20T15:30:19;12.70;99.90
19437;DHT22;9854;50.968;4.168;2023-03-20T15:32:47;12.70;99.90
19437;DHT22;9854;50.968;4.168;2023-03-20T15:35:16;12.80;99.90
19437;DHT22;9854;50.968;4.168;2023-03-20T15:37:45;12.80;99.90
19437;DHT22;9854;50.968;4.168;2023-03-20T15:43:05;12.80;99.90
19437;DHT22;9854;50.968;4.168;2023-03-20T15:45:34;12.70;99.90
19437;DHT22;9854;50.968;4.168;2023-03-20T15:48:04;12.80;99.90
19437;DHT22;9854;50.968;4.168;2023-03-20T15:50:35;12.90;99.90
19437;DHT22;9854;50.968;4.168;2023-03-20T15:53:03;13.00;99.90
19437;DHT22;9854;50.968;4.168;2023-03-20T15:55:29;13.10;99.90
19437;DHT22;9854;50.968;4.168;2023-03-20T15:57:57;12.90;99.90
19437;DHT22;9854;50.968;4.168;2023-03-20T16:00:33;12.90;99.90
19437;DHT22;9854;50.968;4.168;2023-03-20T16:03:01;12.90;99.90
19437;DHT22;9854;50.968;4.168;2023-03-20T16:05:29;12.90;99.90
19437;DHT22;9854;50.968;4.168;2023-03-20T16:07:55;12.70;99.90
19437;DHT22;9854;50.968;4.168;2023-03-20T16:10:32;12.80;99.90
19437;DHT22;9854;50.968;4.168;2023-03-20T16:13:03;12.90;99.90
19437;DHT22;9854;50.968;4.168;2023-03-20T16:15:32;13.00;99.90
19437;DHT22;9854;50.968;4.168;2023-03-20T16:18:00;13.00;99.90
19437;DHT22;9854;50.968;4.168;2023-03-20T16:20:32;13.00;99.90
19437;DHT22;9854;50.968;4.168;2023-03-20T16:23:01;13.00;99.90
19437;DHT22;9854;50.968;4.168;2023-03-20T16:25:28;12.80;99.90
19437;DHT22;9854;50.968;4.168;2023-03-20T16:27:53;12.80;99.90
19437;DHT22;9854;50.968;4.168;2023-03-20T16:30:29;12.60;99.90
19437;DHT22;9854;50.968;4.168;2023-03-20T16:33:02;12.60;99.90
19437;DHT22;9854;50.968;4.168;2023-03-20T16:35:42;12.70;99.90
19437;DHT22;9854;50.968;4.168;2023-03-20T16:38:26;12.70;99.90
19437;DHT22;9854;50.968;4.168;2023-03-20T16:40:53;12.80;99.90
19437;DHT22;9854;50.968;4.168;2023-03-20T16:43:24;12.80;99.90
19437;DHT22;9854;50.968;4.168;2023-03-20T16:45:54;12.80;99.90
19437;DHT22;9854;50.968;4.168;2023-03-20T16:48:30;12.80;99.90
19437;DHT22;9854;50.968;4.168;2023-03-20T16:53:40;12.70;99.90
19437;DHT22;9854;50.968;4.168;2023-03-20T16:56:26;12.80;99.90
19437;DHT22;9854;50.968;4.168;2023-03-20T16:58:52;12.80;99.90
19437;DHT22;9854;50.968;4.168;2023-03-20T17:01:21;12.80;99.90
19437;DHT22;9854;50.968;4.168;2023-03-20T17:03:55;12.60;99.90
19437;DHT22;9854;50.968;4.168;2023-03-20T17:08:54;12.60;99.90
19437;DHT22;9854;50.968;4.168;2023-03-20T17:11:34;12.60;99.90
19437;DHT22;9854;50.968;4.168;2023-03-20T17:14:00;12.50;99.90
19437;DHT22;9854;50.968;4.168;2023-03-20T17:16:27;12.50;99.90
19437;DHT22;9854;50.968;4.168;2023-03-20T17:19:01;12.70;99.90
19437;DHT22;9854;50.968;4.168;2023-03-20T17:21:27;12.70;99.90
19437;DHT22;9854;50.968;4.168;2023-03-20T17:23:52;12.60;99.90
19437;DHT22;9854;50.968;4.168;2023-03-20T17:26:18;12.60;99.90
19437;DHT22;9854;50.968;4.168;2023-03-20T17:28:44;12.60;99.90
19437;DHT22;9854;50.968;4.168;2023-03-20T17:31:14;12.50;99.90
19437;DHT22;9854;50.968;4.168;2023-03-20T17:33:40;12.50;99.90
19437;DHT22;9854;50.968;4.168;2023-03-20T17:36:27;12.50;99.90
19437;DHT22;9854;50.968;4.168;2023-03-20T17:38:54;12.50;99.90
19437;DHT22;9854;50.968;4.168;2023-03-20T17:41:20;12.50;99.90
19437;DHT22;9854;50.968;4.168;2023-03-20T17:43:47;12.40;99.90
19437;DHT22;9854;50.968;4.168;2023-03-20T17:46:25;12.40;99.90
19437;DHT22;9854;50.968;4.168;2023-03-20T17:49:03;12.50;99.90
19437;DHT22;9854;50.968;4.168;2023-03-20T17:51:29;12.50;99.90
19437;DHT22;9854;50.968;4.168;2023-03-20T17:53:55;12.50;99.90
19437;DHT22;9854;50.968;4.168;2023-03-20T17:56:23;12.60;99.90
19437;DHT22;9854;50.968;4.168;2023-03-20T17:58:49;12.70;99.90
19437;DHT22;9854;50.968;4.168;2023-03-20T18:01:16;12.60;99.90
19437;DHT22;9854;50.968;4.168;2023-03-20T18:03:42;12.60;99.90
19437;DHT22;9854;50.968;4.168;2023-03-20T18:06:24;12.50;99.90
19437;DHT22;9854;50.968;4.168;2023-03-20T18:08:52;12.50;99.90
19437;DHT22;9854;50.968;4.168;2023-03-20T18:11:17;12.60;99.90
19437;DHT22;9854;50.968;4.168;2023-03-20T18:13:43;12.60;99.90
19437;DHT22;9854;50.968;4.168;2023-03-20T18:16:16;12.40;99.90
19437;DHT22;9854;50.968;4.168;2023-03-20T18:18:42;12.30;99.90
19437;DHT22;9854;50.968;4.168;2023-03-20T18:21:10;12.20;99.90
19437;DHT22;9854;50.968;4.168;2023-03-20T18:23:35;12.10;99.90
19437;DHT22;9854;50.968;4.168;2023-03-20T18:26:01;12.20;99.90
19437;DHT22;9854;50.968;4.168;2023-03-20T18:28:27;12.40;99.90
19437;DHT22;9854;50.968;4.168;2023-03-20T18:30:53;12.40;99.90
19437;DHT22;9854;50.968;4.168;2023-03-20T18:33:18;12.50;99.90
19437;DHT22;9854;50.968;4.168;2023-03-20T18:35:49;12.30;99.90
19437;DHT22;9854;50.968;4.168;2023-03-20T18:38:15;12.20;99.90
19437;DHT22;9854;50.968;4.168;2023-03-20T18:40:40;12.10;99.90
19437;DHT22;9854;50.968;4.168;2023-03-20T18:43:09;12.10;99.90
19437;DHT22;9854;50.968;4.168;2023-03-20T18:45:35;12.10;99.90
19437;DHT22;9854;50.968;4.168;2023-03-20T18:48:00;12.00;99.90
19437;DHT22;9854;50.968;4.168;2023-03-20T18:50:33;12.00;99.90
19437;DHT22;9854;50.968;4.168;2023-03-20T18:53:01;12.20;99.90
19437;DHT22;9854;50.968;4.168;2023-03-20T18:55:28;12.10;99.90
19437;DHT22;9854;50.968;4.168;2023-03-20T18:57:54;12.10;99.90
19437;DHT22;9854;50.968;4.168;2023-03-20T19:00:27;12.20;99.90
19437;DHT22;9854;50.968;4.168;2023-03-20T19:02:54;12.10;99.90
19437;DHT22;9854;50.968;4.168;2023-03-20T19:05:22;12.20;99.90
19437;DHT22;9854;50.968;4.168;2023-03-20T19:07:48;12.20;99.90
19437;DHT22;9854;50.968;4.168;2023-03-20T19:12:49;12.00;99.90
19437;DHT22;9854;50.968;4.168;2023-03-20T19:15:15;11.90;99.90